Time;durP1;ratioP1;P1;durP2;ratioP2;P2;SDS_P1;SDS_P2;PMS_P1;PMS_P2;Temp;Humidity;BMP_temperature;BMP_pressure;BME280_temperature;BME280_humidity;BME280_pressure;Samples;Min_cycle;Max_cycle;Signal;HPM_P1;HPM_P2
2021/08/14 00:00:30;;;;;;;5.78;2.58;;;;;;;21.16;71.81;93353.53;5031934;28;20045;-92
2021/08/14 00:03:04;;;;;;;9.70;2.53;;;;;;;21.19;71.77;93358.19;5033252;28;20132;-92
2021/08/14 00:05:32;;;;;;;3.80;2.35;;;;;;;21.12;72.26;93344.63;5034024;28;20045;-92
2021/08/14 00:08:00;;;;;;;3.25;1.95;;;;;;;21.09;71.94;93353.28;5017529;28;20041;-92
2021/08/14 00:10:36;;;;;;;6.10;3.10;;;;;;;21.11;71.58;93351.84;5042321;28;20045;-93
2021/08/14 00:13:16;;;;;;;5.05;3.13;;;;;;;21.10;71.93;93357.53;5009815;28;20124;-93
2021/08/14 00:15:53;;;;;;;6.43;3.13;;;;;;;21.02;71.92;93351.16;5018468;28;20049;-91
2021/08/14 00:18:24;;;;;;;7.72;3.22;;;;;;;21.02;71.62;93353.84;5012317;28;20538;-93
2021/08/14 00:21:06;;;;;;;5.07;2.65;;;;;;;21.00;71.84;93351.50;5018283;28;20103;-92
2021/08/14 00:23:35;;;;;;;6.18;3.05;;;;;;;21.00;71.72;93354.16;5015254;28;20513;-92
2021/08/14 00:26:03;;;;;;;5.45;2.97;;;;;;;20.92;71.47;93346.28;5017565;28;20045;-92
2021/08/14 00:28:29;;;;;;;3.92;2.22;;;;;;;20.93;71.09;93343.28;5017252;28;20046;-92
2021/08/14 00:31:02;;;;;;;4.53;2.53;;;;;;;20.91;71.48;93344.72;5016758;28;20203;-92
2021/08/14 00:33:33;;;;;;;5.90;2.75;;;;;;;20.89;71.57;93349.59;5013583;28;20053;-92
2021/08/14 00:36:02;;;;;;;5.10;2.50;;;;;;;20.81;70.94;93337.94;5017300;28;20046;-92
2021/08/14 00:38:37;;;;;;;6.15;3.28;;;;;;;20.83;70.34;93343.72;5016967;28;20037;-94
2021/08/14 00:41:06;;;;;;;3.50;2.30;;;;;;;20.88;70.34;93350.72;5002434;28;20136;-93
2021/08/14 00:43:43;;;;;;;3.58;2.15;;;;;;;20.78;70.93;93344.69;5016794;28;20041;-93
2021/08/14 00:46:13;;;;;;;4.38;2.60;;;;;;;20.74;71.22;93335.06;5016809;28;20578;-92
2021/08/14 00:48:44;;;;;;;3.80;2.33;;;;;;;20.67;71.30;93335.59;5016164;28;20057;-92
2021/08/14 00:51:13;;;;;;;3.72;2.47;;;;;;;20.63;71.23;93333.91;5010992;28;20057;-94
2021/08/14 00:53:42;;;;;;;4.30;2.47;;;;;;;20.55;71.70;93335.50;5000845;28;20036;-92
2021/08/14 00:56:21;;;;;;;3.70;2.30;;;;;;;20.54;71.66;93342.72;4987034;28;20097;-92
2021/08/14 00:58:54;;;;;;;4.95;2.38;;;;;;;20.48;71.66;93337.91;4984233;28;20049;-93
2021/08/14 01:01:26;;;;;;;4.30;2.65;;;;;;;20.42;71.97;93339.97;5027795;28;20467;-93
2021/08/14 01:04:08;;;;;;;;;;;;;;;;;;;;;
2021/08/14 01:06:38;;;;;;;3.70;2.35;;;;;;;20.32;72.45;93340.41;5029624;28;20050;-93
2021/08/14 01:09:14;;;;;;;4.03;2.20;;;;;;;20.26;72.97;93325.75;5029175;28;20068;-92
2021/08/14 01:11:51;;;;;;;4.70;2.90;;;;;;;20.22;73.18;93327.50;5015911;28;20041;-92
2021/08/14 01:14:23;;;;;;;4.75;2.38;;;;;;;20.18;72.98;93325.50;5011427;28;20057;-93
2021/08/14 01:16:56;;;;;;;3.70;1.80;;;;;;;20.23;72.63;93337.03;5016333;28;20128;-92
2021/08/14 01:19:27;;;;;;;6.47;2.53;;;;;;;20.17;72.35;93331.13;5001464;28;20057;-93
2021/08/14 01:21:56;;;;;;;4.50;2.30;;;;;;;20.18;72.31;93330.81;5000347;28;20513;-92
2021/08/14 01:24:35;;;;;;;2.63;1.67;;;;;;;20.17;72.53;93329.28;5013562;28;20052;-93
2021/08/14 01:27:00;;;;;;;4.07;2.53;;;;;;;20.13;72.67;93328.34;5032581;28;20038;-94
2021/08/14 01:29:29;;;;;;;3.85;2.03;;;;;;;20.11;72.75;93322.59;5026523;28;20727;-92
2021/08/14 01:32:01;;;;;;;3.70;2.30;;;;;;;20.14;73.08;93327.25;5035486;28;20047;-92
2021/08/14 01:34:27;;;;;;;;;;;;;;;20.17;73.37;93334.59;5031640;28;20052;-93
2021/08/14 01:37:01;;;;;;;4.55;2.60;;;;;;;20.13;73.36;93331.03;5036508;28;19924;-92
2021/08/14 01:39:40;;;;;;;3.22;1.83;;;;;;;20.06;73.80;93320.13;5041161;28;20048;-92
2021/08/14 01:42:11;;;;;;;2.75;2.00;;;;;;;20.06;74.14;93328.09;5008567;28;20086;-92
2021/08/14 01:44:40;;;;;;;4.22;2.80;;;;;;;20.04;74.58;93332.97;5032494;28;20111;-92
2021/08/14 01:47:07;;;;;;;5.57;2.95;;;;;;;19.98;74.90;93318.31;5008257;28;20127;-93
2021/08/14 01:49:38;;;;;;;6.28;2.22;;;;;;;20.00;75.21;93323.31;5023734;28;20049;-93
2021/08/14 01:52:19;;;;;;;4.70;2.88;;;;;;;20.04;75.46;93334.81;5009463;28;20041;-93
2021/08/14 01:54:55;;;;;;;4.05;2.45;;;;;;;19.99;75.38;93327.81;5032135;28;20049;-92
2021/08/14 01:57:26;;;;;;;4.43;2.53;;;;;;;20.02;75.28;93331.72;5013373;28;20049;-93
2021/08/14 01:59:54;;;;;;;4.63;2.77;;;;;;;19.96;75.91;93323.16;5016197;28;20068;-92
2021/08/14 02:02:25;;;;;;;3.80;2.55;;;;;;;19.98;76.20;93326.28;5014434;28;20330;-92
2021/08/14 02:04:53;;;;;;;4.95;2.88;;;;;;;20.02;76.77;93343.13;5035336;28;20049;-92
2021/08/14 02:07:22;;;;;;;3.60;2.42;;;;;;;19.92;76.91;93333.66;5030509;28;20033;-92
2021/08/14 02:09:55;;;;;;;6.43;3.03;;;;;;;19.91;77.28;93326.81;5018915;28;20045;-93
2021/08/14 02:12:24;;;;;;;6.15;3.00;;;;;;;19.90;77.59;93327.13;5030038;28;20099;-93
2021/08/14 02:14:52;;;;;;;4.13;2.60;;;;;;;19.90;77.60;93329.78;5034964;28;20119;-93
2021/08/14 02:17:28;;;;;;;4.55;2.78;;;;;;;19.89;78.07;93328.22;5047288;28;20051;-92
2021/08/14 02:19:56;;;;;;;4.90;3.13;;;;;;;19.93;78.60;93329.16;5035461;28;20472;-92
2021/08/14 02:22:24;;;;;;;13.68;3.45;;;;;;;19.89;78.58;93329.00;5012779;28;20041;-92
2021/08/14 02:24:55;;;;;;;7.27;3.10;;;;;;;19.91;78.81;93334.00;5035281;28;20072;-92
2021/08/14 02:27:21;;;;;;;6.18;3.20;;;;;;;19.88;78.91;93322.16;5025996;28;20025;-91
2021/08/14 02:29:59;;;;;;;4.57;2.63;;;;;;;19.90;79.21;93329.78;5015726;28;20057;-93
2021/08/14 02:32:28;;;;;;;4.88;2.45;;;;;;;19.88;79.17;93326.66;5009960;28;20056;-93
2021/08/14 02:34:54;;;;;;;6.75;3.97;;;;;;;19.84;79.29;93323.88;5032515;28;20029;-92
2021/08/14 02:37:22;;;;;;;5.80;2.92;;;;;;;19.83;79.41;93318.88;5024548;28;20103;-93
2021/08/14 02:40:03;;;;;;;3.80;2.65;;;;;;;19.82;79.22;93312.81;5015096;28;20128;-94
2021/08/14 02:42:35;;;;;;;5.60;3.08;;;;;;;19.80;79.20;93322.19;4984646;28;20058;-91
2021/08/14 02:45:05;;;;;;;4.95;2.78;;;;;;;19.82;78.71;93327.97;4991086;28;20042;-93
2021/08/14 02:47:36;;;;;;;4.57;3.05;;;;;;;19.74;78.19;93318.94;5002234;28;20132;-95
2021/08/14 02:50:12;;;;;;;6.07;2.60;;;;;;;19.73;77.90;93326.13;5016287;28;20042;-92
2021/08/14 02:52:41;;;;;;;6.72;2.72;;;;;;;19.65;77.71;93318.97;5013757;28;20030;-92
2021/08/14 02:55:17;;;;;;;7.53;2.85;;;;;;;19.64;77.99;93317.41;5032277;28;20033;-92
2021/08/14 02:57:55;;;;;;;4.90;2.67;;;;;;;19.65;77.77;93321.63;5017958;28;20042;-93
2021/08/14 03:00:30;;;;;;;5.63;3.22;;;;;;;19.64;77.93;93316.66;5009083;28;20053;-93
2021/08/14 03:02:59;;;;;;;3.30;2.05;;;;;;;19.66;78.28;93314.44;5020612;28;20107;-93
2021/08/14 03:05:28;;;;;;;4.97;3.50;;;;;;;19.65;78.28;93316.31;5025406;28;20072;-93
2021/08/14 03:07:58;;;;;;;5.30;2.75;;;;;;;19.67;78.63;93324.72;5018192;28;20037;-91
2021/08/14 03:10:34;;;;;;;;;;;;;;;;;;;;;
2021/08/14 03:13:13;;;;;;;4.68;2.72;;;;;;;19.67;78.57;93323.97;5010414;28;20547;-91
2021/08/14 03:15:41;;;;;;;5.35;2.78;;;;;;;19.60;79.11;93321.81;5017396;28;20123;-91
2021/08/14 03:18:17;;;;;;;4.40;3.00;;;;;;;19.59;79.56;93320.28;5020150;28;20033;-92
2021/08/14 03:20:45;;;;;;;4.00;2.88;;;;;;;19.60;80.05;93332.44;5038447;28;20048;-92
2021/08/14 03:23:22;;;;;;;10.15;3.45;;;;;;;19.55;80.09;93316.69;5016100;28;20512;-92
2021/08/14 03:25:51;;;;;;;5.35;3.08;;;;;;;19.52;79.91;93319.97;5039441;28;20095;-92
2021/08/14 03:28:26;;;;;;;4.85;2.55;;;;;;;19.53;79.18;93321.53;5032427;28;20037;-92
2021/08/14 03:31:20;;;;;;;3.22;2.00;;;;;;;19.51;78.08;93324.50;5017907;28;20052;-91
2021/08/14 03:33:57;;;;;;;7.63;2.35;;;;;;;19.46;76.70;93315.97;5022457;28;20164;-92
2021/08/14 03:36:26;;;;;;;3.53;2.15;;;;;;;19.44;76.12;93318.94;5012979;28;20124;-91
2021/08/14 03:38:57;;;;;;;6.32;2.80;;;;;;;19.46;75.69;93319.41;5032006;28;20076;-91
2021/08/14 03:41:32;;;;;;;5.95;2.67;;;;;;;19.40;75.82;93314.59;5028883;28;20481;-93
2021/08/14 03:44:12;;;;;;;3.58;1.85;;;;;;;19.42;75.69;93330.97;5020848;28;20065;-91
2021/08/14 03:46:58;;;;;;;3.92;2.25;;;;;;;19.39;75.69;93323.66;5049709;28;20029;-92
2021/08/14 03:49:47;;;;;;;4.20;2.42;;;;;;;19.37;75.15;93323.19;5032374;28;20072;-93
2021/08/14 03:52:19;;;;;;;3.20;1.92;;;;;;;19.35;74.83;93321.63;5017768;28;20041;-91
2021/08/14 03:54:55;;;;;;;7.70;3.20;;;;;;;19.35;74.76;93321.63;5034493;28;20045;-92
2021/08/14 03:57:29;;;;;;;4.30;2.58;;;;;;;19.33;75.19;93323.81;5013752;28;20041;-92
2021/08/14 04:00:04;;;;;;;3.75;2.20;;;;;;;19.31;75.47;93326.03;5018122;28;20045;-92
2021/08/14 04:02:41;;;;;;;4.78;2.40;;;;;;;19.31;75.32;93323.38;5014065;28;20546;-92
2021/08/14 04:05:14;;;;;;;7.57;2.55;;;;;;;19.32;74.92;93321.50;5017935;28;20513;-91
2021/08/14 04:07:47;;;;;;;3.80;2.22;;;;;;;19.30;74.98;93327.13;5017893;28;20045;-93
2021/08/14 04:10:21;;;;;;;3.20;2.08;;;;;;;19.25;74.86;93316.69;5002786;28;20073;-91
2021/08/14 04:13:00;;;;;;;6.75;3.05;;;;;;;19.29;74.88;93332.75;5017085;28;20053;-92
2021/08/14 04:15:36;;;;;;;5.72;2.60;;;;;;;19.23;74.90;93328.72;5017786;28;20073;-92
2021/08/14 04:18:06;;;;;;;4.80;2.45;;;;;;;19.26;75.19;93334.16;5022482;28;20372;-91
2021/08/14 04:20:37;;;;;;;3.65;2.40;;;;;;;19.28;74.70;93347.91;5033750;28;20053;-92
2021/08/14 04:23:05;;;;;;;8.10;3.08;;;;;;;19.25;74.68;93342.44;5023627;28;20073;-92
2021/08/14 04:25:37;;;;;;;5.20;2.60;;;;;;;19.18;74.37;93337.63;5018071;28;20457;-92
2021/08/14 04:28:33;;;;;;;4.32;2.47;;;;;;;19.21;74.17;93342.31;5021767;28;20053;-92
2021/08/14 04:31:04;;;;;;;4.95;3.00;;;;;;;19.21;74.24;93344.19;5017360;28;20056;-92
2021/08/14 04:33:30;;;;;;;4.30;1.90;;;;;;;19.25;74.19;93350.41;5017228;28;20462;-92
2021/08/14 04:36:00;;;;;;;2.78;1.60;;;;;;;19.27;73.54;93349.00;5017536;28;20037;-91
2021/08/14 04:38:36;;;;;;;3.55;2.60;;;;;;;19.25;73.03;93343.25;5017607;28;20053;-91
2021/08/14 04:41:05;;;;;;;13.15;2.70;;;;;;;19.31;73.27;93355.22;5000999;28;20050;-92
2021/08/14 04:43:38;;;;;;;5.73;2.13;;;;;;;19.28;73.63;93353.22;5016834;28;20129;-91
2021/08/14 04:46:14;;;;;;;1.67;1.30;;;;;;;19.33;73.40;93352.25;5033327;28;20045;-92
2021/08/14 04:48:40;;;;;;;3.75;2.28;;;;;;;19.34;73.21;93353.78;5026419;28;20065;-92
2021/08/14 04:51:06;;;;;;;4.65;1.73;;;;;;;19.39;73.05;93352.88;5016736;28;20588;-91
2021/08/14 04:53:34;;;;;;;3.30;2.13;;;;;;;19.44;72.57;93360.66;5016687;28;20037;-92
2021/08/14 04:56:12;;;;;;;4.60;1.77;;;;;;;19.44;72.44;93350.03;5017366;28;20121;-92
2021/08/14 04:58:40;;;;;;;3.30;2.33;;;;;;;19.53;72.54;93361.38;5026233;28;20093;-90
2021/08/14 05:01:15;;;;;;;6.22;2.00;;;;;;;19.53;72.52;93353.41;5015572;28;20200;-90
2021/08/14 05:03:43;;;;;;;3.63;1.75;;;;;;;19.58;72.08;93355.09;5028321;28;20049;-91
2021/08/14 05:06:14;;;;;;;3.72;2.17;;;;;;;19.64;71.99;93359.13;5016333;28;20494;-92
2021/08/14 05:08:47;;;;;;;3.92;2.35;;;;;;;19.74;72.18;93359.56;5016744;28;20076;-93
2021/08/14 05:11:24;;;;;;;5.50;2.38;;;;;;;19.81;71.97;93359.03;5018216;28;20049;-92
2021/08/14 05:14:02;;;;;;;4.55;2.40;;;;;;;19.86;71.76;93360.72;5032476;28;20142;-92
2021/08/14 05:16:31;;;;;;;5.63;1.92;;;;;;;19.93;71.77;93355.72;5001326;28;20549;-92
2021/08/14 05:19:07;;;;;;;2.72;1.75;;;;;;;20.08;71.37;93359.66;5033628;28;20377;-92
2021/08/14 05:21:34;;;;;;;3.97;2.13;;;;;;;20.14;71.27;93361.78;5016034;28;20128;-92
2021/08/14 05:24:06;;;;;;;2.55;1.67;;;;;;;20.28;70.80;93366.06;5035294;28;20033;-93
2021/08/14 05:26:34;;;;;;;3.72;1.92;;;;;;;20.41;70.93;93361.59;5035341;28;20049;-95
2021/08/14 05:29:02;;;;;;;3.20;1.90;;;;;;;20.48;70.64;93361.84;5019406;28;20035;-91
2021/08/14 05:31:34;;;;;;;6.65;2.20;;;;;;;20.61;70.67;93360.06;5029172;28;20492;-92
2021/08/14 05:34:09;;;;;;;2.53;1.60;;;;;;;20.73;70.50;93362.75;5032440;28;20072;-92
2021/08/14 05:36:48;;;;;;;3.60;2.30;;;;;;;20.89;70.40;93360.22;5016191;28;20045;-92
2021/08/14 05:39:16;;;;;;;4.97;2.75;;;;;;;21.06;70.24;93361.94;5015576;28;20556;-92
2021/08/14 05:41:58;;;;;;;;;;;;;;;;;;;;;
2021/08/14 05:44:44;;;;;;;;;;;;;;;;;;;;;
2021/08/14 05:47:21;;;;;;;5.05;2.30;;;;;;;21.49;69.05;93361.47;5025205;28;20504;-92
2021/08/14 05:49:52;;;;;;;4.20;2.35;;;;;;;21.67;68.94;93374.56;5035688;28;20049;-92
2021/08/14 05:52:27;;;;;;;8.57;3.20;;;;;;;21.78;68.63;93362.34;5035675;28;20123;-91
2021/08/14 05:54:56;;;;;;;5.38;1.92;;;;;;;21.98;68.78;93371.31;5016144;28;20049;-92
2021/08/14 05:57:24;;;;;;;6.47;2.30;;;;;;;22.14;68.25;93372.16;5033852;28;20041;-91
2021/08/14 06:00:21;;;;;;;;;;;;;;;;;;;;;
2021/08/14 06:02:45;;;;;;;5.32;2.58;;;;;;;22.45;67.49;93368.91;5044827;28;20563;-92
2021/08/14 06:05:25;;;;;;;4.82;2.90;;;;;;;22.62;66.65;93367.81;5022903;28;20045;-92
2021/08/14 06:08:08;;;;;;;7.55;3.08;;;;;;;22.75;66.08;93373.13;5033296;28;20072;-92
2021/08/14 06:10:34;;;;;;;4.40;2.20;;;;;;;22.97;66.08;93377.91;5031837;28;20046;-92
2021/08/14 06:17:51;;;;;;;5.40;2.20;;;;;;;24.54;62.25;93380.03;4917060;29;20076;-92
2021/08/14 06:21:52;;;;;;;;;;;;;;;;;;;;;
2021/08/14 06:25:00;;;;;;;;;;;;;;;;;;;;;
2021/08/14 06:28:40;;;;;;;5.15;3.13;;;;;;;32.24;41.48;93368.50;5011222;28;20474;-94
2021/08/14 06:32:20;;;;;;;4.93;2.92;;;;;;;32.41;41.27;93372.97;4935756;29;20134;-95
2021/08/14 06:35:40;;;;;;;;;;;;;;;;;;;;;
2021/08/14 06:39:37;;;;;;;;;;;;;;;;;;;;;
2021/08/14 06:49:23;;;;;;;4.22;2.92;;;;;;;36.90;32.39;93381.63;4962980;28;20429;-81
2021/08/14 06:51:48;;;;;;;6.40;3.03;;;;;;;37.21;32.21;93386.63;4985478;28;20042;-81
2021/08/14 06:54:14;;;;;;;5.90;3.42;;;;;;;37.43;31.00;93389.50;4997589;28;20215;-80
2021/08/14 06:56:40;;;;;;;7.72;3.42;;;;;;;37.34;30.43;93390.16;5010317;28;20050;-81
2021/08/14 06:59:05;;;;;;;4.57;2.97;;;;;;;37.50;30.95;93384.56;5010099;28;20073;-80
2021/08/14 07:01:31;;;;;;;5.63;3.53;;;;;;;35.88;34.29;93389.31;5009813;28;20041;-79
2021/08/14 07:03:57;;;;;;;5.25;2.90;;;;;;;32.57;40.67;93391.41;5015708;28;20060;-80
2021/08/14 07:06:24;;;;;;;4.13;2.75;;;;;;;30.62;41.33;93390.34;5016560;28;20054;-79
2021/08/14 07:08:50;;;;;;;5.57;2.72;;;;;;;29.92;42.50;93396.22;5009570;28;20039;-78
2021/08/14 07:11:19;;;;;;;5.38;2.75;;;;;;;29.00;44.86;93398.41;4979782;28;20057;-78
2021/08/14 07:13:46;;;;;;;5.88;3.00;;;;;;;28.67;45.32;93399.41;4988986;28;20058;-78
2021/08/14 07:16:12;;;;;;;4.70;2.65;;;;;;;28.78;45.61;93402.94;4998062;28;20049;-79
2021/08/14 07:18:37;;;;;;;6.20;2.92;;;;;;;28.64;47.24;93398.25;5010842;28;20040;-79
2021/08/14 07:21:04;;;;;;;4.03;2.33;;;;;;;28.77;45.14;93393.28;5003276;28;20243;-79
2021/08/14 07:23:29;;;;;;;4.70;2.53;;;;;;;28.11;47.40;93395.25;4982705;28;20045;-81
2021/08/14 07:25:55;;;;;;;4.90;2.55;;;;;;;27.84;48.37;93395.44;4998689;28;20504;-80
2021/08/14 07:28:21;;;;;;;4.57;2.70;;;;;;;27.98;47.22;93392.06;5011584;28;20032;-80
2021/08/14 07:30:47;;;;;;;4.10;2.70;;;;;;;27.74;46.45;93390.69;4992601;28;20054;-80
2021/08/14 07:33:16;;;;;;;4.22;2.80;;;;;;;26.97;51.89;93393.81;5013325;28;20046;-78
2021/08/14 07:35:43;;;;;;;3.97;2.42;;;;;;;26.75;52.32;93390.13;4991054;28;20049;-78
2021/08/14 07:38:09;;;;;;;7.55;2.45;;;;;;;27.18;53.22;93395.97;4990129;28;20073;-77
2021/08/14 07:40:35;;;;;;;6.80;3.30;;;;;;;26.89;53.84;93388.75;4998697;28;20463;-78
2021/08/14 07:43:01;;;;;;;7.75;3.58;;;;;;;26.56;54.11;93391.03;4967734;28;20635;-79
2021/08/14 07:45:27;;;;;;;6.22;2.80;;;;;;;27.20;53.84;93396.41;4974678;28;20543;-79
2021/08/14 07:47:53;;;;;;;7.50;2.83;;;;;;;27.72;52.37;93395.69;5027511;28;20059;-79
2021/08/14 07:50:26;;;;;;;5.13;2.75;;;;;;;27.55;53.14;93391.72;4989314;28;20060;-79
2021/08/14 07:52:53;;;;;;;5.80;3.20;;;;;;;27.68;55.25;93398.34;5018400;28;20102;-78
2021/08/14 07:55:19;;;;;;;5.05;2.88;;;;;;;27.82;55.42;93409.22;5024247;28;20396;-79
2021/08/14 07:57:45;;;;;;;11.80;3.22;;;;;;;27.04;58.87;93408.47;5024479;28;20034;-79
2021/08/14 08:00:15;;;;;;;4.50;2.75;;;;;;;27.31;56.44;93404.56;5011831;28;20033;-79
2021/08/14 08:02:41;;;;;;;4.95;2.97;;;;;;;27.46;57.83;93402.00;5003026;28;20383;-80
2021/08/14 08:05:08;;;;;;;7.55;3.10;;;;;;;26.88;58.63;93400.63;5017286;28;20069;-79
2021/08/14 08:07:34;;;;;;;6.47;3.10;;;;;;;26.08;60.68;93400.72;5017153;28;20124;-79
2021/08/14 08:10:02;;;;;;;4.38;2.38;;;;;;;26.02;59.72;93407.53;4999792;28;20065;-80
2021/08/14 08:12:28;;;;;;;6.70;3.00;;;;;;;25.91;61.89;93404.69;5003769;28;20052;-79
2021/08/14 08:14:53;;;;;;;4.53;2.92;;;;;;;26.03;60.50;93406.38;5036863;28;20041;-79
2021/08/14 08:17:19;;;;;;;4.88;2.65;;;;;;;25.94;61.64;93404.75;5019500;28;20416;-79
2021/08/14 08:19:45;;;;;;;3.88;2.55;;;;;;;25.73;61.65;93412.41;5019323;28;20558;-80
2021/08/14 08:22:10;;;;;;;4.28;2.53;;;;;;;25.85;62.12;93408.75;5035415;28;20129;-79
2021/08/14 08:24:36;;;;;;;3.63;2.28;;;;;;;26.30;61.23;93407.13;4986543;28;20136;-80
2021/08/14 08:27:02;;;;;;;4.35;2.63;;;;;;;26.00;60.92;93407.88;4987822;28;20054;-79
2021/08/14 08:29:27;;;;;;;4.47;2.78;;;;;;;26.23;61.31;93405.16;5005106;28;20084;-79
2021/08/14 08:31:53;;;;;;;4.43;2.67;;;;;;;26.13;60.31;93406.53;5026621;28;20362;-79
2021/08/14 08:34:23;;;;;;;3.65;2.30;;;;;;;26.55;56.50;93408.28;5012294;28;20285;-79
2021/08/14 08:36:53;;;;;;;6.50;2.88;;;;;;;26.89;58.94;93408.31;5034587;28;20499;-79
2021/08/14 08:39:19;;;;;;;4.97;2.25;;;;;;;26.18;60.18;93408.91;5018948;28;20128;-79
2021/08/14 08:41:45;;;;;;;6.78;2.75;;;;;;;26.09;61.56;93413.00;5033515;28;20059;-80
2021/08/14 08:44:11;;;;;;;5.88;2.75;;;;;;;26.36;60.93;93403.78;5037150;28;20132;-79
2021/08/14 08:46:39;;;;;;;3.80;2.40;;;;;;;26.11;58.29;93408.81;5018323;28;20053;-79
2021/08/14 08:49:06;;;;;;;5.32;3.03;;;;;;;26.29;59.61;93406.38;5018104;28;20042;-79
2021/08/14 08:51:32;;;;;;;5.70;2.92;;;;;;;26.53;60.00;93415.91;5026882;28;20049;-80
2021/08/14 08:53:59;;;;;;;3.30;2.10;;;;;;;26.29;60.45;93411.75;5001792;28;20075;-80
2021/08/14 08:56:25;;;;;;;4.90;3.08;;;;;;;26.54;59.37;93411.31;5032634;28;20037;-80
2021/08/14 08:58:50;;;;;;;5.38;2.95;;;;;;;26.46;55.74;93409.69;5010913;28;20131;-79
2021/08/14 09:01:16;;;;;;;4.85;2.90;;;;;;;26.61;57.21;93411.41;5016808;28;20042;-80
2021/08/14 09:03:42;;;;;;;6.05;3.45;;;;;;;26.80;57.41;93405.13;5013635;28;20041;-80
2021/08/14 09:06:07;;;;;;;3.25;2.13;;;;;;;26.48;59.32;93407.38;5020168;28;20037;-80
2021/08/14 09:08:33;;;;;;;7.15;3.72;;;;;;;26.17;60.17;93404.69;5002119;28;20050;-79
2021/08/14 09:11:13;;;;;;;5.38;3.28;;;;;;;26.36;59.18;93401.09;5028913;28;20487;-80
2021/08/14 09:14:00;;;;;;;4.45;2.70;;;;;;;26.50;59.73;93405.09;5035697;28;20111;-79
2021/08/14 09:16:26;;;;;;;5.03;3.03;;;;;;;26.20;57.47;93395.13;5034249;28;20038;-79
2021/08/14 09:18:57;;;;;;;4.82;2.47;;;;;;;26.30;59.67;93396.41;5036941;28;20037;-79
2021/08/14 09:21:33;;;;;;;6.30;2.72;;;;;;;26.49;59.79;93395.53;5033652;28;20044;-79
2021/08/14 09:24:08;;;;;;;5.72;2.55;;;;;;;26.80;59.89;93391.72;5016290;28;20045;-79
2021/08/14 09:26:46;;;;;;;6.18;3.13;;;;;;;26.62;55.93;93391.50;5016079;28;20093;-79
2021/08/14 09:29:12;;;;;;;5.28;3.65;;;;;;;26.70;59.43;93386.97;5031289;28;20045;-79
2021/08/14 09:31:49;;;;;;;4.45;2.55;;;;;;;26.40;54.69;93390.41;5031639;28;20318;-79
2021/08/14 09:34:16;;;;;;;7.25;3.40;;;;;;;26.66;58.12;93389.63;4998133;28;20056;-79
2021/08/14 09:36:42;;;;;;;5.07;3.08;;;;;;;26.88;57.82;93389.88;5030263;28;20060;-80
2021/08/14 09:39:08;;;;;;;5.50;2.65;;;;;;;26.66;57.83;93388.84;5029751;28;20046;-79
2021/08/14 09:41:33;;;;;;;5.68;2.85;;;;;;;26.67;55.77;93383.13;5006063;28;20037;-79
2021/08/14 09:43:59;;;;;;;7.50;3.15;;;;;;;27.10;56.49;93383.59;5022696;28;20046;-80
2021/08/14 09:49:01;;;;;;;5.07;2.80;;;;;;;27.05;54.77;93381.22;5032617;28;20049;-79
2021/08/14 09:51:30;;;;;;;5.22;2.80;;;;;;;27.23;56.35;93376.06;5015162;28;20092;-79
2021/08/14 09:53:58;;;;;;;5.85;2.80;;;;;;;27.30;55.29;93378.81;4998111;28;20099;-79
2021/08/14 09:56:26;;;;;;;5.68;2.97;;;;;;;27.43;55.35;93376.63;4998681;28;20033;-79
2021/08/14 09:58:52;;;;;;;5.57;3.38;;;;;;;27.14;55.09;93370.97;5012494;28;20083;-79
2021/08/14 10:01:19;;;;;;;9.98;3.35;;;;;;;27.15;54.86;93377.88;5034712;28;20487;-79
2021/08/14 10:03:46;;;;;;;11.23;3.55;;;;;;;26.95;56.87;93373.81;5017380;28;20045;-79
2021/08/14 10:06:13;;;;;;;6.13;3.40;;;;;;;26.88;56.37;93371.84;5034585;28;20029;-79
2021/08/14 10:08:40;;;;;;;7.15;3.58;;;;;;;27.22;55.77;93368.38;5032359;28;20054;-79
2021/08/14 10:11:12;;;;;;;6.88;3.05;;;;;;;27.38;55.02;93371.59;5039891;28;20033;-78
2021/08/14 10:13:39;;;;;;;4.15;2.53;;;;;;;27.32;54.87;93365.03;5042279;28;20456;-79
2021/08/14 10:16:05;;;;;;;5.05;3.00;;;;;;;27.46;53.70;93370.50;5020291;28;20073;-79
2021/08/14 10:18:31;;;;;;;7.03;2.97;;;;;;;27.49;55.63;93356.31;5016624;28;20037;-79
2021/08/14 10:20:57;;;;;;;4.50;2.53;;;;;;;27.80;54.88;93359.63;5019181;28;20037;-80
2021/08/14 10:23:24;;;;;;;6.78;3.30;;;;;;;27.88;53.70;93361.28;5015835;28;20044;-79
2021/08/14 10:26:15;;;;;;;4.82;3.15;;;;;;;27.45;55.22;93360.13;5034697;28;20053;-79
2021/08/14 10:28:51;;;;;;;4.65;3.00;;;;;;;27.40;54.70;93356.66;5022483;28;20045;-78
2021/08/14 10:31:29;;;;;;;7.25;3.45;;;;;;;27.58;55.03;93348.72;5016783;28;20099;-79
2021/08/14 10:34:18;;;;;;;4.68;2.80;;;;;;;27.27;55.33;93349.22;4986202;28;20046;-79
2021/08/14 10:36:46;;;;;;;4.80;2.53;;;;;;;27.37;54.32;93351.22;5026267;28;20046;-81
2021/08/14 10:39:17;;;;;;;5.85;2.80;;;;;;;27.43;55.36;93352.44;5018584;28;20042;-78
2021/08/14 10:41:43;;;;;;;7.80;3.03;;;;;;;27.68;54.68;93347.25;5015669;28;20454;-79
2021/08/14 10:44:09;;;;;;;5.95;3.38;;;;;;;27.89;53.75;93346.66;5018941;28;20205;-80
2021/08/14 10:46:35;;;;;;;5.15;3.22;;;;;;;27.98;53.04;93340.94;5034827;28;20058;-77
2021/08/14 10:49:01;;;;;;;8.00;2.50;;;;;;;28.20;52.37;93344.53;5024345;28;20049;-77
2021/08/14 10:51:51;;;;;;;8.15;3.08;;;;;;;27.84;52.88;93338.94;4979721;28;20053;-78
2021/08/14 10:54:29;;;;;;;5.47;3.00;;;;;;;27.26;53.46;93336.94;5013281;28;20041;-78
2021/08/14 10:56:57;;;;;;;7.30;3.22;;;;;;;27.79;54.19;93339.28;5013406;28;20438;-77
2021/08/14 10:59:38;;;;;;;4.10;2.55;;;;;;;28.31;52.94;93339.97;5012780;28;20066;-78
2021/08/14 11:02:09;;;;;;;4.68;2.90;;;;;;;28.00;53.35;93333.28;5022075;28;20418;-79
2021/08/14 11:04:38;;;;;;;6.30;3.40;;;;;;;27.94;53.48;93337.47;5014866;28;20076;-78
2021/08/14 11:07:19;;;;;;;8.85;3.33;;;;;;;28.01;54.17;93338.28;5033697;28;20033;-78
2021/08/14 11:09:49;;;;;;;4.25;2.80;;;;;;;27.69;55.16;93331.88;5009846;28;20128;-77
2021/08/14 11:12:31;;;;;;;16.90;3.83;;;;;;;27.93;54.64;93328.63;5028845;28;20045;-76
2021/08/14 11:15:15;;;;;;;;;;;;;;;28.31;54.36;93329.22;5032030;28;20065;-77
2021/08/14 11:17:43;;;;;;;8.10;3.10;;;;;;;28.27;54.34;93322.28;5029938;28;20347;-77
2021/08/14 11:20:21;;;;;;;13.55;3.63;;;;;;;28.08;56.36;93320.63;5014101;28;20202;-77
2021/08/14 11:22:48;;;;;;;9.48;3.20;;;;;;;27.87;54.81;93315.91;5013518;28;20060;-77
2021/08/14 11:25:29;;;;;;;5.05;3.20;;;;;;;27.39;53.89;93316.69;5010782;28;20068;-76
2021/08/14 11:28:09;;;;;;;5.57;3.15;;;;;;;27.90;52.92;93309.75;5013878;28;20136;-77
2021/08/14 11:30:38;;;;;;;5.32;3.42;;;;;;;27.88;55.73;93310.16;5027397;28;20084;-77
2021/08/14 11:33:06;;;;;;;6.15;3.72;;;;;;;27.74;55.56;93308.13;5015576;28;20587;-76
2021/08/14 11:35:34;;;;;;;6.97;3.15;;;;;;;27.71;54.97;93308.09;5030520;28;20607;-77
2021/08/14 11:38:02;;;;;;;5.13;3.50;;;;;;;27.99;53.70;93308.28;5017737;28;20116;-77
2021/08/14 11:40:31;;;;;;;5.95;3.30;;;;;;;28.20;54.20;93296.09;5034907;28;20064;-76
2021/08/14 11:43:00;;;;;;;6.35;3.70;;;;;;;27.87;52.12;93303.22;5016888;28;20037;-77
2021/08/14 11:45:27;;;;;;;13.02;3.67;;;;;;;28.28;52.63;93303.06;5026881;28;20125;-78
2021/08/14 11:48:00;;;;;;;7.55;3.90;;;;;;;28.16;51.96;93312.22;5014048;28;20061;-77
2021/08/14 11:50:40;;;;;;;7.07;3.20;;;;;;;28.65;51.63;93302.81;5004901;28;20082;-78
2021/08/14 11:53:08;;;;;;;5.10;3.58;;;;;;;28.57;51.73;93298.56;5007950;28;20077;-77
2021/08/14 11:55:35;;;;;;;6.25;3.50;;;;;;;28.69;51.10;93302.06;5017099;28;20042;-78
2021/08/14 11:58:00;;;;;;;8.55;3.42;;;;;;;28.54;51.97;93301.25;5015461;28;20385;-77
2021/08/14 12:00:32;;;;;;;5.18;3.28;;;;;;;28.76;51.68;93302.88;5015760;28;20048;-77
2021/08/14 12:03:12;;;;;;;5.43;3.35;;;;;;;28.78;48.63;93300.56;4997162;28;20511;-77
2021/08/14 12:05:41;;;;;;;7.97;4.22;;;;;;;28.23;50.33;93295.31;4997929;28;20129;-78
2021/08/14 12:08:08;;;;;;;7.47;3.80;;;;;;;28.20;51.73;93296.09;5014531;28;20038;-77
2021/08/14 12:10:35;;;;;;;5.38;3.35;;;;;;;28.13;48.67;93296.06;4999687;28;20037;-78
2021/08/14 12:13:04;;;;;;;6.35;3.83;;;;;;;28.17;50.74;93291.47;5005849;28;20041;-77
2021/08/14 12:15:41;;;;;;;5.35;3.22;;;;;;;28.71;51.70;93289.78;5011788;28;20050;-78
2021/08/14 12:18:08;;;;;;;4.05;2.78;;;;;;;28.77;48.61;93290.91;5008001;28;20117;-77
2021/08/14 12:20:39;;;;;;;6.75;3.25;;;;;;;28.53;48.85;93291.63;4978119;28;20046;-77
2021/08/14 12:23:26;;;;;;;7.55;4.35;;;;;;;28.27;50.25;93285.34;4981642;28;20041;-78